Deer Meadows, Washington
Current Conditions -  °F | °C
As of 1:12 PM on Thursday 23 Oct 2014 (Local Time) from KSKA Reporting Station
Light Rain Light Rain  
Wind Chill: 54°   Ceiling: 2400
Heat Index: 54°   Visibility: 10mi
Dew Point: 50°   Wind: 14mph
Humidity: 88%   Direction: 190°S
Pressure: 29.79"   Gusts: NA
Location:  47.7035°N, 118.192°W
Report Text: KSKA 232012Z AUTO 19012KT 10SM -RA SCT010 SCT015 BKN024 BKN045 OVC075 12/10 A2979 RMK AO2 RAB2008 CIG 024V045 CIG 030 RWY05
Loading
Personal Weather Stations






























Interactive Weather Map
Tropical Storm Tracking
New forecast layout! Learn more

10-Day Weather Forecast

Advertisements
Track Severe Weather on mobile